createdAt,value
2023-01-28T00:01:17.298Z,22.60
2023-01-28T00:03:44.437Z,22.85
2023-01-28T00:06:14.753Z,22.77
2023-01-28T00:08:42.065Z,22.67
2023-01-28T00:11:11.152Z,22.52
2023-01-28T00:13:38.307Z,24.25
2023-01-28T00:16:08.962Z,23.40
2023-01-28T00:18:36.022Z,21.80
2023-01-28T00:21:08.528Z,21.45
2023-01-28T00:23:37.005Z,22.30
2023-01-28T00:26:06.605Z,22.20
2023-01-28T00:28:33.769Z,22.23
2023-01-28T00:31:06.589Z,22.33
2023-01-28T00:36:06.704Z,23.50
2023-01-28T00:38:34.761Z,20.38
2023-01-28T00:41:13.496Z,21.25
2023-01-28T00:43:41.472Z,22.10
2023-01-28T00:46:10.712Z,20.85
2023-01-28T00:48:38.919Z,21.75
2023-01-28T00:51:06.440Z,21.75
2023-01-28T00:53:36.133Z,20.48
2023-01-28T00:56:03.789Z,20.92
2023-01-28T00:58:33.009Z,21.23
2023-01-28T01:01:08.542Z,21.73
2023-01-28T01:03:35.695Z,20.88
2023-01-28T01:06:02.724Z,21.25
2023-01-28T01:08:34.975Z,21.02
2023-01-28T01:11:06.497Z,20.63
2023-01-28T01:13:37.013Z,21.40
2023-01-28T01:16:18.343Z,20.02
2023-01-28T01:18:48.932Z,20.95
2023-01-28T01:21:19.245Z,20.58
2023-01-28T01:23:46.715Z,20.67
2023-01-28T01:26:14.420Z,19.60
2023-01-28T01:28:41.656Z,21.30
2023-01-28T01:31:15.004Z,19.40
2023-01-28T01:36:10.638Z,19.63
2023-01-28T01:38:38.047Z,19.35
2023-01-28T01:41:05.980Z,18.95
2023-01-28T01:43:51.280Z,21.05
2023-01-28T01:46:36.214Z,20.52
2023-01-28T01:49:23.742Z,19.60
2023-01-28T01:51:58.657Z,19.52
2023-01-28T01:54:29.763Z,20.00
2023-01-28T01:56:58.235Z,20.17
2023-01-28T01:59:31.815Z,19.02
2023-01-28T02:02:05.261Z,20.02
2023-01-28T02:07:03.204Z,19.50
2023-01-28T02:09:36.312Z,19.33
2023-01-28T02:12:11.799Z,20.42
2023-01-28T02:14:45.400Z,20.30
2023-01-28T02:19:56.219Z,19.88
2023-01-28T02:22:57.232Z,20.45
2023-01-28T02:25:45.498Z,20.48
2023-01-28T02:28:29.959Z,19.67
2023-01-28T02:31:11.709Z,19.85
2023-01-28T02:33:46.425Z,19.60
2023-01-28T02:36:22.302Z,21.77
2023-01-28T02:38:52.820Z,21.33
2023-01-28T02:41:47.215Z,21.75
2023-01-28T02:44:14.655Z,21.80
2023-01-28T02:47:00.019Z,22.88
2023-01-28T02:49:33.861Z,22.90
2023-01-28T02:52:10.761Z,23.67
2023-01-28T02:54:55.954Z,23.70
2023-01-28T02:57:34.654Z,24.70
2023-01-28T03:00:15.904Z,25.27
2023-01-28T03:03:00.901Z,24.58
2023-01-28T03:05:38.879Z,25.35
2023-01-28T03:08:28.350Z,25.48
2023-01-28T03:11:16.265Z,24.73
2023-01-28T03:14:03.181Z,25.60
2023-01-28T03:16:51.619Z,25.13
2023-01-28T03:19:38.015Z,25.35
2023-01-28T03:22:24.285Z,26.52
2023-01-28T03:25:11.810Z,25.42
2023-01-28T03:28:10.182Z,24.20
2023-01-28T03:31:01.679Z,24.45
2023-01-28T03:33:56.780Z,25.48
2023-01-28T03:36:43.045Z,25.50
2023-01-28T03:39:23.176Z,26.30
2023-01-28T03:42:18.788Z,25.00
2023-01-28T03:44:57.634Z,24.17
2023-01-28T03:47:29.997Z,24.98
2023-01-28T03:50:02.299Z,23.90
2023-01-28T03:52:35.606Z,21.85
2023-01-28T03:55:28.307Z,22.55
2023-01-28T03:57:55.243Z,22.20
2023-01-28T04:00:23.432Z,22.30
2023-01-28T04:02:50.562Z,24.33
2023-01-28T04:05:20.747Z,25.10
2023-01-28T04:07:51.836Z,23.90
2023-01-28T04:10:43.948Z,24.42
2023-01-28T04:15:52.847Z,23.17
2023-01-28T04:18:20.989Z,23.75
2023-01-28T04:20:50.314Z,22.98
2023-01-28T04:23:18.023Z,23.70
2023-01-28T04:25:45.164Z,22.17
2023-01-28T04:28:12.017Z,23.02
2023-01-28T04:30:38.870Z,21.92
2023-01-28T04:33:12.657Z,22.52
2023-01-28T04:36:02.896Z,22.52
2023-01-28T04:38:52.483Z,21.23
2023-01-28T04:41:39.381Z,20.77
2023-01-28T04:44:21.571Z,22.25
2023-01-28T04:47:01.626Z,20.50
2023-01-28T04:49:42.271Z,21.48
2023-01-28T04:52:31.737Z,21.92
2023-01-28T04:55:16.860Z,21.65
2023-01-28T04:57:46.771Z,22.10
2023-01-28T05:00:13.946Z,22.52
2023-01-28T05:02:40.819Z,20.60
2023-01-28T05:05:09.145Z,21.60
2023-01-28T05:07:58.926Z,22.50
2023-01-28T05:10:27.550Z,22.52
2023-01-28T05:12:55.265Z,21.05
2023-01-28T05:15:22.465Z,22.95
2023-01-28T05:17:50.717Z,22.83
2023-01-28T05:20:21.796Z,22.38
2023-01-28T05:22:49.899Z,22.23
2023-01-28T05:25:20.438Z,23.13
2023-01-28T05:27:52.352Z,22.85
2023-01-28T05:30:20.264Z,21.67
2023-01-28T05:32:47.617Z,23.30
2023-01-28T05:35:17.875Z,21.73
2023-01-28T05:37:44.995Z,21.25
2023-01-28T05:40:14.397Z,21.77
2023-01-28T05:42:41.723Z,24.05
2023-01-28T05:45:21.516Z,21.33
2023-01-28T05:48:11.374Z,21.58
2023-01-28T05:50:59.101Z,21.13
2023-01-28T05:53:33.468Z,19.90
2023-01-28T05:56:00.804Z,21.60
2023-01-28T05:58:32.203Z,21.35
2023-01-28T06:01:02.477Z,20.55
2023-01-28T06:03:37.989Z,20.95
2023-01-28T06:06:05.054Z,20.63
2023-01-28T06:08:32.117Z,21.70
2023-01-28T06:10:59.962Z,18.17
2023-01-28T06:13:28.997Z,20.55
2023-01-28T06:16:16.117Z,20.00
2023-01-28T06:18:58.014Z,18.08
2023-01-28T06:21:25.025Z,20.33
2023-01-28T06:23:51.859Z,21.48
2023-01-28T06:26:18.864Z,21.55
2023-01-28T06:28:47.915Z,19.67
2023-01-28T06:31:14.779Z,20.30
2023-01-28T06:33:41.645Z,20.98
2023-01-28T06:36:08.855Z,20.02
2023-01-28T06:38:35.891Z,20.92
2023-01-28T06:41:03.070Z,21.70
2023-01-28T06:43:31.246Z,19.48
2023-01-28T06:45:59.113Z,19.40
2023-01-28T06:48:26.941Z,19.98
2023-01-28T06:50:54.271Z,20.40
2023-01-28T06:53:21.674Z,20.38
2023-01-28T06:55:48.544Z,19.90
2023-01-28T06:58:15.395Z,20.70
2023-01-28T07:00:42.228Z,20.17
2023-01-28T07:03:09.353Z,20.08
2023-01-28T07:05:37.620Z,20.98
2023-01-28T07:08:04.511Z,21.05
2023-01-28T07:10:31.332Z,21.27
2023-01-28T07:12:58.128Z,21.40
2023-01-28T07:15:24.863Z,22.90
2023-01-28T07:17:51.774Z,19.77
2023-01-28T07:20:18.944Z,21.60
2023-01-28T07:22:47.269Z,21.20
2023-01-28T07:25:15.424Z,20.33
2023-01-28T07:27:51.405Z,21.05
2023-01-28T07:30:19.724Z,20.73
2023-01-28T07:32:47.060Z,20.30
2023-01-28T07:35:14.434Z,19.55
2023-01-28T07:37:41.410Z,21.27
2023-01-28T07:40:09.022Z,20.42
2023-01-28T07:42:36.092Z,20.45
2023-01-28T07:45:07.265Z,21.33
2023-01-28T07:47:34.327Z,19.40
2023-01-28T07:50:01.192Z,19.40
2023-01-28T07:52:28.567Z,21.20
2023-01-28T07:54:55.379Z,21.00
2023-01-28T07:57:24.964Z,19.83
2023-01-28T07:59:51.904Z,18.45
2023-01-28T08:02:19.201Z,19.13
2023-01-28T08:04:47.652Z,18.55
2023-01-28T08:07:14.508Z,19.00
2023-01-28T08:09:41.342Z,20.50
2023-01-28T08:12:08.245Z,18.92
2023-01-28T08:14:35.474Z,18.33
2023-01-28T08:17:02.650Z,19.35
2023-01-28T08:19:30.060Z,18.15
2023-01-28T08:21:56.934Z,19.95
2023-01-28T08:24:23.786Z,17.25
2023-01-28T08:26:50.522Z,17.48
2023-01-28T08:29:17.355Z,18.85
2023-01-28T08:31:44.302Z,17.48
2023-01-28T08:34:11.195Z,16.85
2023-01-28T08:36:38.000Z,16.27
2023-01-28T08:39:06.927Z,17.33
2023-01-28T08:41:33.721Z,17.35
2023-01-28T08:44:00.590Z,16.75
2023-01-28T08:46:27.502Z,17.42
2023-01-28T08:48:54.327Z,17.13
2023-01-28T08:51:22.646Z,16.15
2023-01-28T08:53:49.564Z,17.73
2023-01-28T08:56:16.779Z,16.70
2023-01-28T08:58:45.142Z,16.63
2023-01-28T09:01:12.038Z,17.95
2023-01-28T09:03:38.864Z,17.67
2023-01-28T09:06:06.742Z,16.77
2023-01-28T09:08:33.738Z,16.25
2023-01-28T09:11:01.789Z,15.98
2023-01-28T09:13:28.951Z,15.45
2023-01-28T09:15:56.166Z,17.00
2023-01-28T09:18:23.299Z,15.82
2023-01-28T09:20:50.164Z,16.38
2023-01-28T09:23:18.322Z,16.33
2023-01-28T09:25:45.207Z,16.33
2023-01-28T09:28:12.421Z,16.10
2023-01-28T09:30:39.872Z,17.15
2023-01-28T09:33:07.323Z,16.67
2023-01-28T09:45:17.805Z,15.63
2023-01-28T09:47:54.556Z,15.75
2023-01-28T09:50:35.369Z,15.75
2023-01-28T09:53:18.024Z,16.23
2023-01-28T09:55:49.813Z,15.57
2023-01-28T09:58:18.525Z,16.60
2023-01-28T10:00:51.251Z,15.70
2023-01-28T10:03:42.868Z,16.20
2023-01-28T10:06:34.069Z,16.63
2023-01-28T10:09:43.039Z,16.08
2023-01-28T10:12:57.074Z,15.25
2023-01-28T10:15:53.916Z,15.82
2023-01-28T10:18:31.091Z,15.82
2023-01-28T10:21:24.518Z,14.93
2023-01-28T10:24:18.787Z,16.85
2023-01-28T10:26:46.063Z,16.65
2023-01-28T10:29:19.713Z,15.75
2023-01-28T10:31:54.194Z,16.75
2023-01-28T10:34:22.423Z,17.13
2023-01-28T10:36:50.533Z,19.05
2023-01-28T10:39:21.732Z,17.52
2023-01-28T10:41:57.459Z,26.83
2023-01-28T10:44:34.767Z,16.48
2023-01-28T10:47:07.900Z,16.83
2023-01-28T10:49:41.605Z,16.60
2023-01-28T10:52:15.880Z,17.88
2023-01-28T10:54:42.905Z,17.38
2023-01-28T10:57:16.773Z,17.73
2023-01-28T10:59:43.984Z,17.95
2023-01-28T11:02:33.594Z,16.05
2023-01-28T11:05:23.099Z,17.65
2023-01-28T11:07:50.235Z,17.85
2023-01-28T11:10:35.839Z,18.38
2023-01-28T11:13:05.164Z,17.45
2023-01-28T11:15:33.113Z,18.15
2023-01-28T11:18:04.096Z,18.50
2023-01-28T11:20:37.729Z,17.67
2023-01-28T11:23:05.678Z,17.67
2023-01-28T11:25:35.558Z,16.58
2023-01-28T11:28:06.281Z,17.67
2023-01-28T11:30:36.740Z,17.65
2023-01-28T11:33:23.839Z,18.02
2023-01-28T11:35:58.953Z,17.77
2023-01-28T11:38:26.636Z,17.02
2023-01-28T11:40:55.417Z,16.95
2023-01-28T11:43:27.124Z,16.75
2023-01-28T11:46:05.417Z,16.63
2023-01-28T11:48:44.301Z,17.35
2023-01-28T11:51:14.069Z,16.90
2023-01-28T11:53:49.499Z,18.02
2023-01-28T11:56:29.562Z,17.27
2023-01-28T11:59:25.046Z,18.55
2023-01-28T12:02:06.343Z,17.33
2023-01-28T12:05:11.314Z,18.05
2023-01-28T12:08:17.278Z,18.48
2023-01-28T12:11:20.100Z,20.40
2023-01-28T12:14:06.299Z,17.25
2023-01-28T12:16:44.961Z,18.40
2023-01-28T12:19:26.524Z,18.90
2023-01-28T12:22:27.352Z,17.92
2023-01-28T12:25:34.018Z,16.65
2023-01-28T12:28:25.777Z,16.90
2023-01-28T12:31:18.454Z,20.23
2023-01-28T12:34:04.133Z,18.77
2023-01-28T12:36:46.196Z,17.40
2023-01-28T12:39:24.679Z,17.15
2023-01-28T12:42:41.251Z,17.17
2023-01-28T12:45:33.554Z,17.08
2023-01-28T12:48:06.874Z,16.95
2023-01-28T12:50:48.969Z,17.88
2023-01-28T12:53:50.479Z,17.00
2023-01-28T12:56:37.868Z,18.80
2023-01-28T12:59:13.005Z,16.15
2023-01-28T13:01:47.786Z,17.05
2023-01-28T13:04:26.870Z,16.77
2023-01-28T13:07:08.012Z,16.90
2023-01-28T13:09:37.291Z,15.60
2023-01-28T13:12:05.420Z,16.05
2023-01-28T13:14:33.684Z,16.85
2023-01-28T13:17:26.024Z,17.75
2023-01-28T13:19:52.849Z,16.02
2023-01-28T13:22:36.153Z,15.95
2023-01-28T13:25:21.275Z,17.27
2023-01-28T13:28:06.121Z,17.05
2023-01-28T13:30:36.128Z,17.30
2023-01-28T13:33:06.458Z,15.70
2023-01-28T13:35:41.220Z,15.93
2023-01-28T13:38:14.143Z,16.85
2023-01-28T13:40:41.940Z,16.27
2023-01-28T13:43:32.624Z,16.38
2023-01-28T13:46:02.500Z,16.50
2023-01-28T13:48:52.652Z,16.30
2023-01-28T13:51:40.859Z,16.52
2023-01-28T13:54:19.004Z,16.35
2023-01-28T13:57:01.162Z,16.45
2023-01-28T13:59:46.418Z,16.75
2023-01-28T14:02:28.404Z,16.75
2023-01-28T14:05:18.697Z,15.55
2023-01-28T14:08:08.392Z,17.58
2023-01-28T14:11:11.726Z,15.70
2023-01-28T14:14:01.619Z,15.75
2023-01-28T14:16:53.181Z,17.27
2023-01-28T14:19:27.653Z,17.10
2023-01-28T14:21:54.878Z,17.58
2023-01-28T14:24:21.906Z,16.80
2023-01-28T14:26:48.767Z,18.23
2023-01-28T14:29:46.259Z,16.42
2023-01-28T14:32:20.000Z,16.35
2023-01-28T14:34:48.139Z,16.90
2023-01-28T14:37:19.306Z,16.63
2023-01-28T14:39:57.152Z,16.30
2023-01-28T14:42:31.173Z,17.25
2023-01-28T14:45:21.002Z,14.45
2023-01-28T14:48:07.577Z,18.15
2023-01-28T14:51:06.780Z,17.30
2023-01-28T14:54:04.909Z,15.30
2023-01-28T14:56:58.370Z,15.93
2023-01-28T14:59:37.684Z,16.35
2023-01-28T15:02:19.189Z,15.45
2023-01-28T15:04:46.052Z,15.85
2023-01-28T15:07:27.300Z,15.98
2023-01-28T15:10:18.380Z,17.15
2023-01-28T15:13:07.757Z,14.60
2023-01-28T15:15:37.027Z,15.27
2023-01-28T15:18:28.647Z,15.90
2023-01-28T15:20:56.921Z,14.27
2023-01-28T15:23:37.385Z,15.13
2023-01-28T15:26:15.463Z,14.23
2023-01-28T15:28:45.089Z,16.13
2023-01-28T15:31:23.918Z,14.52
2023-01-28T15:34:18.782Z,14.80
2023-01-28T15:36:47.841Z,14.55
2023-01-28T15:39:16.832Z,16.63
2023-01-28T15:41:47.796Z,15.23
2023-01-28T15:44:20.505Z,19.52
2023-01-28T15:46:47.411Z,16.23
2023-01-28T15:49:16.305Z,16.77
2023-01-28T15:51:48.760Z,17.15
2023-01-28T15:54:15.587Z,16.77
2023-01-28T15:56:42.603Z,15.30
2023-01-28T15:59:16.401Z,16.25
2023-01-28T16:01:43.547Z,16.67
2023-01-28T16:04:30.583Z,15.27
2023-01-28T16:07:04.526Z,16.55
2023-01-28T16:09:34.321Z,15.85
2023-01-28T16:12:11.131Z,16.90
2023-01-28T16:14:45.450Z,15.63
2023-01-28T16:17:19.007Z,15.25
2023-01-28T16:19:49.505Z,15.40
2023-01-28T16:22:39.886Z,15.68
2023-01-28T16:25:28.043Z,14.70
2023-01-28T16:27:56.006Z,15.68
2023-01-28T16:30:23.240Z,15.27
2023-01-28T16:32:50.292Z,15.95
2023-01-28T16:35:20.738Z,15.60
2023-01-28T16:37:48.820Z,15.27
2023-01-28T16:40:18.763Z,16.17
2023-01-28T16:42:45.922Z,16.63
2023-01-28T16:45:21.486Z,14.15
2023-01-28T16:47:48.303Z,15.27
2023-01-28T16:50:16.597Z,16.20
2023-01-28T16:52:44.968Z,15.90
2023-01-28T16:55:15.030Z,16.52
2023-01-28T16:57:43.369Z,16.13
2023-01-28T17:00:23.150Z,16.17
2023-01-28T17:02:51.247Z,15.80
2023-01-28T17:05:21.468Z,15.00
2023-01-28T17:07:49.433Z,16.85
2023-01-28T17:10:17.893Z,17.98
2023-01-28T17:12:47.501Z,16.75
2023-01-28T17:15:14.863Z,17.40
2023-01-28T17:17:41.806Z,17.25
2023-01-28T17:20:09.648Z,18.20
2023-01-28T17:22:36.583Z,18.52
2023-01-28T17:25:03.437Z,18.25
2023-01-28T17:27:30.318Z,16.45
2023-01-28T17:29:57.260Z,17.73
2023-01-28T17:32:24.219Z,17.45
2023-01-28T17:34:51.049Z,16.20
2023-01-28T17:37:17.902Z,17.38
2023-01-28T17:39:44.651Z,17.10
2023-01-28T17:42:11.456Z,17.23
2023-01-28T17:44:39.111Z,17.17
2023-01-28T17:47:05.957Z,17.02
2023-01-28T17:49:32.735Z,17.65
2023-01-28T17:51:59.515Z,19.10
2023-01-28T17:54:26.993Z,17.10
2023-01-28T17:56:54.094Z,18.92
2023-01-28T17:59:22.642Z,17.40
2023-01-28T18:01:54.557Z,18.30
2023-01-28T18:04:21.415Z,18.33
2023-01-28T18:06:49.282Z,18.10
2023-01-28T18:09:16.143Z,19.05
2023-01-28T18:11:43.003Z,19.08
2023-01-28T18:14:09.730Z,18.63
2023-01-28T18:16:36.504Z,19.80
2023-01-28T18:19:03.470Z,20.48
2023-01-28T18:21:51.231Z,20.25
2023-01-28T18:24:19.362Z,18.80
2023-01-28T18:26:46.205Z,19.45
2023-01-28T18:29:16.966Z,19.77
2023-01-28T18:31:44.308Z,18.40
2023-01-28T18:34:11.698Z,20.40
2023-01-28T18:36:38.490Z,18.95
2023-01-28T18:39:05.310Z,19.40
2023-01-28T18:41:32.136Z,17.58
2023-01-28T18:43:58.891Z,18.83
2023-01-28T18:46:25.714Z,18.65
2023-01-28T18:48:52.584Z,19.20
2023-01-28T18:51:30.046Z,18.38
2023-01-28T18:54:01.959Z,17.92
2023-01-28T18:56:29.732Z,18.58
2023-01-28T18:58:58.279Z,17.95
2023-01-28T19:01:25.341Z,18.33
2023-01-28T19:03:54.169Z,18.35
2023-01-28T19:06:20.891Z,18.55
2023-01-28T19:08:53.704Z,18.92
2023-01-28T19:11:21.999Z,18.95
2023-01-28T19:13:49.002Z,18.88
2023-01-28T19:16:16.086Z,18.13
2023-01-28T19:18:43.355Z,18.55
2023-01-28T19:21:10.217Z,18.63
2023-01-28T19:23:49.100Z,18.10
2023-01-28T19:26:21.160Z,19.50
2023-01-28T19:28:49.461Z,17.92
2023-01-28T19:31:18.948Z,18.45
2023-01-28T19:33:46.980Z,18.80
2023-01-28T19:36:14.478Z,18.45
2023-01-28T19:38:41.996Z,18.48
2023-01-28T19:41:08.975Z,16.80
2023-01-28T19:43:36.431Z,18.13
2023-01-28T19:46:06.080Z,18.80
2023-01-28T19:48:33.867Z,19.33
2023-01-28T19:51:09.308Z,18.48
2023-01-28T19:53:36.871Z,18.08
2023-01-28T19:56:06.344Z,18.17
2023-01-28T19:58:41.822Z,19.02
2023-01-28T20:01:14.486Z,18.95
2023-01-28T20:03:41.513Z,18.03
2023-01-28T20:06:16.753Z,19.60
2023-01-28T20:08:44.546Z,19.38
2023-01-28T20:11:16.210Z,18.92
2023-01-28T20:13:45.820Z,18.10
2023-01-28T20:16:16.757Z,19.02
2023-01-28T20:18:43.591Z,19.83
2023-01-28T20:21:10.445Z,18.35
2023-01-28T20:23:37.276Z,20.23
2023-01-28T20:26:04.102Z,20.48
2023-01-28T20:28:30.973Z,18.48
2023-01-28T20:30:57.935Z,20.02
2023-01-28T20:33:24.756Z,19.77
2023-01-28T20:35:51.587Z,21.25
2023-01-28T20:38:18.313Z,20.10
2023-01-28T20:40:46.147Z,20.00
2023-01-28T20:43:12.921Z,20.60
2023-01-28T20:45:39.684Z,21.80
2023-01-28T20:48:06.805Z,21.40
2023-01-28T20:50:35.017Z,22.27
2023-01-28T20:53:01.884Z,22.13
2023-01-28T20:55:28.811Z,21.92
2023-01-28T20:57:55.659Z,22.88
2023-01-28T21:00:23.237Z,23.35
2023-01-28T21:02:50.255Z,22.20
2023-01-28T21:05:17.155Z,23.05
2023-01-28T21:07:43.880Z,22.23
2023-01-28T21:10:11.349Z,22.08
2023-01-28T21:12:39.309Z,22.23
2023-01-28T21:15:08.024Z,22.98
2023-01-28T21:17:34.871Z,22.30
2023-01-28T21:20:01.614Z,23.52
2023-01-28T21:22:29.847Z,24.83
2023-01-28T21:24:56.635Z,23.42
2023-01-28T21:27:23.488Z,21.90
2023-01-28T21:29:52.958Z,22.63
2023-01-28T21:32:22.950Z,23.58
2023-01-28T21:34:51.533Z,23.65
2023-01-28T21:37:22.335Z,24.42
2023-01-28T21:39:50.299Z,25.77
2023-01-28T21:42:17.265Z,23.05
2023-01-28T21:44:44.343Z,24.05
2023-01-28T21:47:11.085Z,24.15
2023-01-28T21:49:37.887Z,23.45
2023-01-28T21:52:06.606Z,24.25
2023-01-28T21:54:34.714Z,22.67
2023-01-28T21:57:01.598Z,22.27
2023-01-28T21:59:28.559Z,23.33
2023-01-28T22:02:13.063Z,22.80
2023-01-28T22:04:41.940Z,22.02
2023-01-28T22:07:12.263Z,23.45
2023-01-28T22:09:39.568Z,23.15
2023-01-28T22:12:08.167Z,21.40
2023-01-28T22:14:35.992Z,22.90
2023-01-28T22:17:04.429Z,20.02
2023-01-28T22:19:31.332Z,21.10
2023-01-28T22:21:58.034Z,18.95
2023-01-28T22:24:25.136Z,18.50
2023-01-28T22:26:53.086Z,19.42
2023-01-28T22:29:21.116Z,16.23
2023-01-28T22:31:53.264Z,16.05
2023-01-28T22:34:21.524Z,16.73
2023-01-28T22:36:49.420Z,15.95
2023-01-28T22:39:17.434Z,15.00
2023-01-28T22:41:44.862Z,14.50
2023-01-28T22:44:12.167Z,11.82
2023-01-28T22:46:39.312Z,12.43
2023-01-28T22:49:06.353Z,13.10
2023-01-28T22:51:35.121Z,11.23
2023-01-28T22:54:02.586Z,11.60
2023-01-28T22:56:30.694Z,10.77
2023-01-28T22:59:02.511Z,9.82
2023-01-28T23:01:30.225Z,8.02
2023-01-28T23:03:56.999Z,8.40
2023-01-28T23:06:26.584Z,7.32
2023-01-28T23:08:54.518Z,7.78
2023-01-28T23:11:28.360Z,7.95
2023-01-28T23:14:19.632Z,7.03
2023-01-28T23:17:06.078Z,5.75
2023-01-28T23:19:51.655Z,5.70
2023-01-28T23:22:46.520Z,5.93
2023-01-28T23:25:13.848Z,6.07
2023-01-28T23:27:41.180Z,6.07
2023-01-28T23:30:10.311Z,6.05
2023-01-28T23:33:05.033Z,6.45
2023-01-28T23:35:32.783Z,6.65
2023-01-28T23:37:59.639Z,6.20
2023-01-28T23:40:27.350Z,6.63
2023-01-28T23:42:55.280Z,6.78
2023-01-28T23:45:22.681Z,7.30
2023-01-28T23:47:49.843Z,6.90
2023-01-28T23:50:17.212Z,6.78
2023-01-28T23:52:44.362Z,7.00
2023-01-28T23:55:11.245Z,6.35
2023-01-28T23:57:38.097Z,7.15
